createdAt,value
2022-12-05T00:02:39.549Z,84.97
2022-12-05T00:07:40.707Z,84.98
2022-12-05T00:12:46.505Z,84.99
2022-12-05T00:17:47.669Z,85.06
2022-12-05T00:22:48.756Z,85.13
2022-12-05T00:27:50.309Z,85.15
2022-12-05T00:32:51.553Z,85.17
2022-12-05T00:37:52.622Z,85.08
2022-12-05T00:42:53.777Z,84.98
2022-12-05T00:48:01.082Z,84.91
2022-12-05T00:53:02.393Z,84.92
2022-12-05T00:58:03.807Z,85.00
2022-12-05T01:03:04.930Z,85.04
2022-12-05T01:08:06.111Z,85.03
2022-12-05T01:13:07.291Z,85.03
2022-12-05T01:18:08.352Z,85.02
2022-12-05T01:23:09.511Z,84.99
2022-12-05T01:28:10.742Z,84.95
2022-12-05T01:33:12.178Z,84.86
2022-12-05T01:38:13.406Z,84.82
2022-12-05T01:43:16.620Z,84.81
2022-12-05T01:48:25.220Z,84.74
2022-12-05T01:53:27.721Z,84.70
2022-12-05T01:58:35.373Z,84.70
2022-12-05T02:03:37.379Z,84.65
2022-12-05T02:08:39.306Z,84.59
2022-12-05T02:14:19.610Z,84.55
2022-12-05T02:19:55.111Z,84.49
2022-12-05T02:25:21.638Z,84.50
2022-12-05T02:30:24.645Z,84.43
2022-12-05T02:35:36.113Z,84.54
2022-12-05T02:40:46.918Z,84.60
2022-12-05T02:45:53.941Z,84.68
2022-12-05T02:50:59.296Z,84.71
2022-12-05T02:56:01.170Z,84.84
2022-12-05T03:01:03.280Z,84.81
2022-12-05T03:06:11.270Z,84.84
2022-12-05T03:11:12.790Z,84.84
2022-12-05T03:16:28.158Z,84.80
2022-12-05T03:21:31.659Z,84.81
2022-12-05T03:26:56.424Z,84.81
2022-12-05T03:32:09.076Z,84.79
2022-12-05T03:37:18.785Z,84.77
2022-12-05T03:42:31.043Z,84.79
2022-12-05T03:47:41.798Z,84.85
2022-12-05T03:53:18.221Z,84.93
2022-12-05T03:58:26.132Z,84.98
2022-12-05T04:03:42.189Z,84.98
2022-12-05T04:08:50.827Z,84.93
2022-12-05T04:13:56.415Z,84.78
2022-12-05T04:19:51.175Z,84.69
2022-12-05T04:25:14.125Z,84.62
2022-12-05T04:30:29.493Z,84.51
2022-12-05T04:35:41.114Z,84.43
2022-12-05T04:41:12.537Z,84.33
2022-12-05T04:46:17.699Z,84.22
2022-12-05T04:51:23.446Z,84.15
2022-12-05T04:56:28.572Z,84.08
2022-12-05T05:01:29.796Z,83.99
2022-12-05T05:06:31.404Z,83.86
2022-12-05T05:11:34.653Z,83.78
2022-12-05T05:16:39.318Z,83.75
2022-12-05T05:21:42.327Z,83.75
2022-12-05T05:26:45.441Z,83.74
2022-12-05T05:31:46.664Z,83.77
2022-12-05T05:36:52.498Z,83.85
2022-12-05T05:41:53.657Z,83.90
2022-12-05T05:46:55.035Z,83.97
2022-12-05T05:51:56.235Z,84.06
2022-12-05T05:56:57.349Z,84.16
2022-12-05T06:01:58.454Z,84.22
2022-12-05T06:06:59.532Z,84.40
2022-12-05T06:12:00.703Z,84.57
2022-12-05T06:17:01.889Z,84.55
2022-12-05T06:22:03.092Z,84.46
2022-12-05T06:27:04.722Z,84.38
2022-12-05T06:32:05.965Z,84.33
2022-12-05T06:37:07.551Z,84.29
2022-12-05T06:42:09.048Z,84.30
2022-12-05T06:47:10.433Z,84.27
2022-12-05T06:52:12.261Z,84.26
2022-12-05T06:57:14.036Z,84.18
2022-12-05T07:02:15.243Z,84.19
2022-12-05T07:07:16.407Z,84.19
2022-12-05T07:12:19.052Z,84.22
2022-12-05T07:17:21.588Z,84.22
2022-12-05T07:22:23.386Z,84.23
2022-12-05T07:27:27.732Z,84.21
2022-12-05T07:32:33.836Z,84.20
2022-12-05T07:37:35.093Z,84.14
2022-12-05T07:42:36.360Z,84.03
2022-12-05T07:47:37.571Z,83.96
2022-12-05T07:52:39.134Z,83.83
2022-12-05T07:57:40.230Z,83.72
2022-12-05T08:02:41.440Z,83.55
2022-12-05T08:07:42.926Z,83.28
2022-12-05T08:12:44.118Z,82.96
2022-12-05T08:17:45.301Z,82.53
2022-12-05T08:22:46.463Z,82.04
2022-12-05T08:27:47.726Z,81.57
2022-12-05T08:32:48.777Z,81.10
2022-12-05T08:37:50.332Z,80.90
2022-12-05T08:42:51.446Z,80.72
2022-12-05T08:47:52.560Z,80.65
2022-12-05T08:52:53.739Z,80.61
2022-12-05T08:57:54.896Z,80.31
2022-12-05T09:02:56.131Z,79.86
2022-12-05T09:07:58.802Z,79.50
2022-12-05T09:13:00.844Z,79.35
2022-12-05T09:18:05.064Z,79.20
2022-12-05T09:23:06.435Z,78.98
2022-12-05T09:28:08.102Z,78.96
2022-12-05T09:33:09.267Z,78.84
2022-12-05T09:38:10.321Z,78.53
2022-12-05T09:43:43.026Z,78.41
2022-12-05T09:48:44.487Z,78.14
2022-12-05T09:53:46.042Z,77.71
2022-12-05T09:58:53.292Z,78.02
2022-12-05T10:04:34.387Z,78.01
2022-12-05T10:09:55.387Z,77.75
2022-12-05T10:15:15.488Z,77.44
2022-12-05T10:20:24.435Z,77.34
2022-12-05T10:25:27.127Z,77.30
2022-12-05T10:30:31.660Z,77.01
2022-12-05T10:35:35.384Z,76.86
2022-12-05T10:40:39.762Z,76.64
2022-12-05T10:45:46.311Z,76.22
2022-12-05T10:50:59.341Z,76.39
2022-12-05T10:56:29.870Z,76.46
2022-12-05T11:01:22.236Z,76.37
2022-12-05T11:06:27.498Z,76.35
2022-12-05T11:11:32.757Z,76.67
2022-12-05T11:16:37.398Z,76.72
2022-12-05T11:21:42.704Z,76.69
2022-12-05T11:26:45.148Z,76.99
2022-12-05T11:31:51.635Z,77.25
2022-12-05T11:36:57.838Z,76.78
2022-12-05T11:41:58.829Z,77.09
2022-12-05T11:47:17.253Z,76.99
2022-12-05T11:52:38.928Z,76.99
2022-12-05T11:57:56.960Z,77.12
2022-12-05T12:03:17.821Z,77.26
2022-12-05T12:08:28.611Z,77.15
2022-12-05T12:13:39.447Z,77.01
2022-12-05T12:18:53.117Z,77.03
2022-12-05T12:24:07.588Z,77.05
2022-12-05T12:29:35.639Z,77.00
2022-12-05T12:35:09.178Z,76.97
2022-12-05T12:40:23.038Z,76.88
2022-12-05T12:45:54.289Z,76.79
2022-12-05T12:50:59.468Z,76.44
2022-12-05T12:56:18.329Z,76.47
2022-12-05T13:01:52.731Z,76.43
2022-12-05T13:07:03.339Z,76.31
2022-12-05T13:12:10.144Z,76.31
2022-12-05T13:17:19.049Z,76.28
2022-12-05T13:22:22.722Z,76.19
2022-12-05T13:27:27.111Z,76.16
2022-12-05T13:32:35.559Z,76.10
2022-12-05T13:38:04.712Z,76.02
2022-12-05T13:43:06.214Z,75.64
2022-12-05T13:48:36.090Z,75.31
2022-12-05T13:53:43.167Z,75.07
2022-12-05T13:58:51.888Z,74.80
2022-12-05T14:03:58.420Z,74.57
2022-12-05T14:09:00.504Z,74.27
2022-12-05T14:14:04.822Z,73.88
2022-12-05T14:19:42.897Z,74.32
2022-12-05T14:25:11.331Z,74.53
2022-12-05T14:30:29.258Z,74.39
2022-12-05T14:35:45.420Z,74.51
2022-12-05T14:40:47.427Z,75.04
2022-12-05T14:45:51.913Z,75.25
2022-12-05T14:50:55.832Z,75.25
2022-12-05T14:55:59.848Z,75.24
2022-12-05T15:01:10.109Z,75.21
2022-12-05T15:06:14.975Z,75.15
2022-12-05T15:11:27.536Z,75.06
2022-12-05T15:16:32.890Z,75.03
2022-12-05T15:21:42.650Z,75.02
2022-12-05T15:26:55.607Z,74.85
2022-12-05T15:32:03.007Z,74.87
2022-12-05T15:37:21.764Z,75.43
2022-12-05T15:42:31.611Z,76.02
2022-12-05T15:47:32.618Z,76.38
2022-12-05T15:52:43.988Z,76.48
2022-12-05T15:57:50.339Z,76.57
2022-12-05T16:02:51.368Z,76.72
2022-12-05T16:07:53.822Z,76.86
2022-12-05T16:12:56.008Z,76.88
2022-12-05T16:18:02.389Z,76.88
2022-12-05T16:23:22.246Z,76.87
2022-12-05T16:28:23.285Z,76.85
2022-12-05T16:33:26.103Z,76.75
2022-12-05T16:38:31.943Z,76.84
2022-12-05T16:43:33.079Z,76.83
2022-12-05T16:48:35.258Z,76.81
2022-12-05T16:53:38.676Z,76.83
2022-12-05T16:58:39.791Z,76.76
2022-12-05T17:03:43.509Z,76.59
2022-12-05T17:08:44.603Z,76.40
2022-12-05T17:13:47.921Z,76.21
2022-12-05T17:18:49.213Z,76.03
2022-12-05T17:23:50.804Z,75.89
2022-12-05T17:28:52.212Z,75.84
2022-12-05T17:33:53.925Z,75.82
2022-12-05T17:38:55.072Z,75.72
2022-12-05T17:43:56.506Z,75.72
2022-12-05T17:48:57.995Z,75.80
2022-12-05T17:53:59.177Z,75.79
2022-12-05T17:59:04.246Z,75.85
2022-12-05T18:04:08.340Z,75.97
2022-12-05T18:09:09.487Z,75.98
2022-12-05T18:14:10.535Z,75.98
2022-12-05T18:19:11.628Z,76.04
2022-12-05T18:24:12.759Z,76.04
2022-12-05T18:29:13.769Z,75.97
2022-12-05T18:34:15.645Z,75.99
2022-12-05T18:39:16.689Z,76.13
2022-12-05T18:44:17.826Z,76.10
2022-12-05T18:49:18.945Z,76.09
2022-12-05T18:54:20.347Z,76.04
2022-12-05T18:59:22.074Z,76.03
2022-12-05T19:04:23.158Z,76.03
2022-12-05T19:09:27.040Z,75.94
2022-12-05T19:14:31.898Z,75.85
2022-12-05T19:19:33.001Z,75.83
2022-12-05T19:24:34.079Z,76.03
2022-12-05T19:29:35.266Z,76.23
2022-12-05T19:34:36.805Z,76.40
2022-12-05T19:39:37.820Z,76.43
2022-12-05T19:44:39.120Z,76.49
2022-12-05T19:49:40.179Z,76.50
2022-12-05T19:54:41.477Z,76.65
2022-12-05T19:59:42.975Z,76.72
2022-12-05T20:04:44.463Z,76.78
2022-12-05T20:09:45.493Z,77.04
2022-12-05T20:14:46.450Z,77.26
2022-12-05T20:19:47.555Z,77.41
2022-12-05T20:24:48.610Z,77.46
2022-12-05T20:29:49.744Z,77.58
2022-12-05T20:34:50.790Z,77.46
2022-12-05T20:39:51.835Z,77.56
2022-12-05T20:44:52.951Z,77.62
2022-12-05T20:49:53.975Z,77.67
2022-12-05T20:54:55.121Z,77.68
2022-12-05T20:59:56.172Z,77.88
2022-12-05T21:04:57.296Z,78.26
2022-12-05T21:10:03.316Z,78.50
2022-12-05T21:15:08.165Z,78.83
2022-12-05T21:20:09.675Z,79.11
2022-12-05T21:25:10.695Z,79.32
2022-12-05T21:30:11.835Z,79.45
2022-12-05T21:35:12.864Z,79.66
2022-12-05T21:40:13.909Z,79.80
2022-12-05T21:45:15.273Z,79.93
2022-12-05T21:50:16.859Z,79.92
2022-12-05T21:55:18.090Z,79.89
2022-12-05T22:00:19.410Z,79.96
2022-12-05T22:05:20.747Z,80.09
2022-12-05T22:10:21.993Z,80.18
2022-12-05T22:15:23.190Z,80.05
2022-12-05T22:20:24.246Z,79.93
2022-12-05T22:25:25.243Z,79.86
2022-12-05T22:30:26.339Z,79.89
2022-12-05T22:35:27.584Z,79.85
2022-12-05T22:40:28.632Z,79.80
2022-12-05T22:45:29.662Z,79.87
2022-12-05T22:50:30.817Z,79.99
2022-12-05T22:55:31.958Z,80.10
2022-12-05T23:00:33.048Z,80.22
2022-12-05T23:05:39.434Z,80.35
2022-12-05T23:10:40.675Z,80.24
2022-12-05T23:15:41.940Z,80.42
2022-12-05T23:20:43.038Z,80.58
2022-12-05T23:25:44.201Z,80.53
2022-12-05T23:30:45.272Z,80.65
2022-12-05T23:35:46.313Z,80.90
2022-12-05T23:41:00.735Z,81.02
2022-12-05T23:46:03.497Z,81.08
2022-12-05T23:51:05.743Z,81.15
2022-12-05T23:56:12.831Z,81.11
